Time;durP1;ratioP1;P1;durP2;ratioP2;P2;SDS_P1;SDS_P2;PMS_P1;PMS_P2;Temp;Humidity;BMP_temperature;BMP_pressure;BME280_temperature;BME280_humidity;BME280_pressure;Samples;Min_cycle;Max_cycle;Signal;HPM_P1;HPM_P2
2022/11/05 00:10:16;;;;;;;4.53;1.05;;;23.20;99.90;;;;;;5044370;28;20304;-77
2022/11/05 00:18:21;;;;;;;3.38;1.02;;;23.10;99.90;;;;;;5070170;28;20234;-75
2022/11/05 00:20:52;;;;;;;5.20;1.00;;;23.00;99.90;;;;;;5051912;28;20602;-78
2022/11/05 00:26:12;;;;;;;4.75;1.10;;;23.10;99.90;;;;;;5056757;28;20231;-78
2022/11/05 00:28:44;;;;;;;4.07;1.10;;;23.20;99.90;;;;;;5063510;28;20279;-78
2022/11/05 00:31:15;;;;;;;6.53;1.02;;;23.30;99.90;;;;;;5061296;28;20196;-79
2022/11/05 00:33:46;;;;;;;4.40;1.00;;;23.30;99.90;;;;;;5064703;28;20238;-79
2022/11/05 00:36:17;;;;;;;2.63;0.80;;;23.40;99.90;;;;;;5058171;28;20196;-79
2022/11/05 00:38:48;;;;;;;4.78;1.00;;;23.30;99.90;;;;;;5063595;28;20211;-80
2022/11/05 00:41:21;;;;;;;3.50;1.00;;;23.40;99.90;;;;;;5056590;28;20243;-80
2022/11/05 00:46:39;;;;;;;3.05;0.90;;;23.40;99.90;;;;;;5067377;28;20299;-80
2022/11/05 00:52:54;;;;;;;4.25;0.80;;;23.40;99.90;;;;;;5066875;28;20336;-79
2022/11/05 00:54:49;;;;;;;5.00;1.10;;;23.30;99.90;;;;;;5054148;28;20196;-80
2022/11/05 00:57:23;;;;;;;3.05;1.10;;;23.30;99.90;;;;;;5062910;28;20216;-79
2022/11/05 00:59:53;;;;;;;3.35;1.10;;;23.40;99.90;;;;;;5062186;28;20253;-78
2022/11/05 01:02:24;;;;;;;3.15;0.85;;;23.40;99.90;;;;;;5066230;28;20196;-78
2022/11/05 01:04:55;;;;;;;6.57;1.10;;;23.50;99.90;;;;;;5052391;28;20197;-79
2022/11/05 01:07:26;;;;;;;2.90;0.93;;;23.50;99.90;;;;;;5061256;28;20261;-79
2022/11/05 01:09:57;;;;;;;4.63;0.93;;;23.50;99.90;;;;;;5066852;28;20566;-79
2022/11/05 01:12:32;;;;;;;5.10;1.17;;;23.60;99.90;;;;;;5060249;28;20200;-78
2022/11/05 01:15:04;;;;;;;6.57;1.27;;;23.70;99.90;;;;;;5054521;28;20203;-78
2022/11/05 01:17:34;;;;;;;6.43;1.45;;;23.50;99.90;;;;;;5060940;28;20230;-78
2022/11/05 01:20:05;;;;;;;5.53;1.00;;;23.50;99.90;;;;;;5059403;28;20204;-78
2022/11/05 01:22:36;;;;;;;4.95;0.95;;;23.50;99.90;;;;;;5058681;28;20776;-78
2022/11/05 01:25:09;;;;;;;5.32;1.05;;;23.50;99.90;;;;;;5075521;28;20203;-72
2022/11/05 01:27:42;;;;;;;4.60;1.10;;;23.60;99.90;;;;;;5056072;28;20208;-79
2022/11/05 01:30:13;;;;;;;2.83;0.95;;;23.70;99.90;;;;;;5058126;28;20282;-81
2022/11/05 01:32:45;;;;;;;5.05;1.10;;;23.80;99.90;;;;;;5053917;28;20215;-79
2022/11/05 01:35:18;;;;;;;2.58;0.80;;;24.00;99.90;;;;;;5057061;28;20257;-79
2022/11/05 01:37:49;;;;;;;3.55;0.90;;;24.10;99.90;;;;;;5069961;28;20202;-78
2022/11/05 01:40:21;;;;;;;3.83;1.05;;;24.10;99.90;;;;;;5060871;28;20196;-79
2022/11/05 01:42:54;;;;;;;3.55;0.93;;;24.10;99.90;;;;;;5060489;28;20677;-79
2022/11/05 01:45:26;;;;;;;3.72;1.20;;;24.20;99.90;;;;;;5058935;28;20191;-77
2022/11/05 01:48:02;;;;;;;8.13;1.45;;;24.10;99.90;;;;;;5059480;28;20325;-78
2022/11/05 01:50:40;;;;;;;5.10;1.00;;;23.90;99.90;;;;;;5062999;28;20195;-77
2022/11/05 01:53:20;;;;;;;7.18;1.20;;;23.90;99.90;;;;;;5082558;28;20518;-78
2022/11/05 01:55:58;;;;;;;3.25;1.13;;;23.90;99.90;;;;;;5063810;28;20287;-76
2022/11/05 01:58:36;;;;;;;3.88;0.90;;;23.80;99.90;;;;;;5071375;28;20195;-77
2022/11/05 02:01:07;;;;;;;4.65;1.02;;;23.90;99.90;;;;;;5072338;28;20230;-77
2022/11/05 02:03:38;;;;;;;4.45;1.05;;;24.00;99.90;;;;;;5072938;28;20266;-77
2022/11/05 02:06:10;;;;;;;5.25;1.95;;;24.10;99.90;;;;;;5072970;28;20200;-77
2022/11/05 02:08:50;;;;;;;7.93;2.60;;;24.10;99.90;;;;;;5085736;28;20649;-77
2022/11/05 02:11:24;;;;;;;5.50;1.40;;;24.30;99.90;;;;;;5072562;28;20214;-77
2022/11/05 02:13:57;;;;;;;4.03;1.10;;;24.40;99.90;;;;;;5069420;28;20212;-77
2022/11/05 02:16:38;;;;;;;3.70;1.40;;;24.60;99.90;;;;;;5071852;28;20605;-77
2022/11/05 02:19:35;;;;;;;4.25;1.13;;;24.50;99.90;;;;;;5072326;28;20625;-77
2022/11/05 02:22:37;;;;;;;2.35;0.80;;;24.60;99.90;;;;;;5070291;28;20631;-77
2022/11/05 02:25:36;;;;;;;3.20;0.95;;;24.50;99.90;;;;;;5071431;28;20541;-77
2022/11/05 02:28:41;;;;;;;2.88;0.77;;;24.50;99.90;;;;;;5069891;28;20686;-77
2022/11/05 02:31:19;;;;;;;3.60;0.82;;;24.60;99.90;;;;;;5054565;28;20218;-77
2022/11/05 02:33:55;;;;;;;4.25;1.13;;;24.70;99.90;;;;;;5056001;28;20201;-77
2022/11/05 02:36:40;;;;;;;2.80;0.65;;;24.60;99.90;;;;;;5053440;28;20196;-78
2022/11/05 02:39:23;;;;;;;3.95;0.80;;;24.40;99.90;;;;;;5070151;28;20562;-77
2022/11/05 02:42:04;;;;;;;2.50;0.75;;;24.40;99.90;;;;;;5071554;28;20228;-77
2022/11/05 02:44:43;;;;;;;5.47;0.88;;;24.50;99.90;;;;;;5071471;28;20202;-77
2022/11/05 02:47:25;;;;;;;2.25;0.80;;;24.60;99.90;;;;;;5052095;28;20209;-77
2022/11/05 02:50:03;;;;;;;3.47;1.00;;;24.70;99.90;;;;;;5051461;28;20235;-76
2022/11/05 02:52:42;;;;;;;3.10;1.00;;;24.70;99.90;;;;;;5051775;28;20208;-77
2022/11/05 02:55:25;;;;;;;5.78;1.08;;;24.90;99.90;;;;;;5078937;28;20486;-76
2022/11/05 02:57:58;;;;;;;4.43;0.80;;;25.00;99.90;;;;;;5073903;28;20207;-77
2022/11/05 03:00:59;;;;;;;4.22;0.80;;;24.90;99.90;;;;;;5071030;28;20206;-77
2022/11/05 03:03:38;;;;;;;4.30;0.93;;;24.70;99.90;;;;;;5028511;28;20340;-77
2022/11/05 03:06:39;;;;;;;2.30;0.80;;;24.80;99.90;;;;;;5065992;28;20287;-76
2022/11/05 03:09:35;;;;;;;2.42;0.77;;;24.70;99.90;;;;;;5070622;28;20218;-77
2022/11/05 03:12:13;;;;;;;2.53;0.82;;;24.80;99.90;;;;;;5072326;28;20205;-77
2022/11/05 03:14:50;;;;;;;4.18;1.13;;;25.00;99.90;;;;;;5079252;28;20218;-76
2022/11/05 03:17:30;;;;;;;3.58;0.82;;;25.20;99.90;;;;;;5070509;28;20219;-75
2022/11/05 03:20:15;;;;;;;2.95;0.88;;;25.20;99.90;;;;;;5051123;28;20541;-77
2022/11/05 03:22:49;;;;;;;5.28;1.10;;;25.00;99.90;;;;;;5050532;28;20346;-77
2022/11/05 03:25:24;;;;;;;4.53;0.80;;;25.20;99.90;;;;;;5050556;28;20208;-77
2022/11/05 03:28:00;;;;;;;3.97;0.73;;;25.20;99.90;;;;;;5075337;28;20641;-77
2022/11/05 03:30:31;;;;;;;2.10;0.60;;;25.40;99.90;;;;;;5075023;28;20621;-77
2022/11/05 03:33:06;;;;;;;4.13;0.80;;;25.50;99.90;;;;;;5070060;28;20214;-77
2022/11/05 03:35:41;;;;;;;2.13;0.68;;;25.50;99.90;;;;;;5070617;28;20198;-77
2022/11/05 03:38:15;;;;;;;2.97;0.82;;;25.50;99.90;;;;;;5067530;28;20211;-77
2022/11/05 03:40:47;;;;;;;3.92;0.73;;;25.40;99.90;;;;;;5060042;28;20341;-78
2022/11/05 03:43:24;;;;;;;2.58;0.90;;;25.20;99.90;;;;;;5070486;28;20214;-77
2022/11/05 03:45:58;;;;;;;3.88;1.10;;;25.30;99.90;;;;;;5067629;28;20275;-78
2022/11/05 03:48:32;;;;;;;7.70;1.20;;;25.40;99.90;;;;;;5070432;28;20200;-78
2022/11/05 03:51:11;;;;;;;2.50;0.80;;;25.30;99.90;;;;;;5071112;28;20286;-78
2022/11/05 03:53:49;;;;;;;2.25;0.75;;;25.50;99.90;;;;;;5069800;28;20195;-78
2022/11/05 03:56:27;;;;;;;4.45;0.80;;;25.60;99.90;;;;;;5070181;28;20256;-78
2022/11/05 03:58:59;;;;;;;2.63;0.68;;;25.80;99.90;;;;;;5068730;28;20198;-78
2022/11/05 04:01:31;;;;;;;2.35;0.70;;;26.00;99.90;;;;;;5053302;28;20223;-79
2022/11/05 04:04:02;;;;;;;2.47;0.75;;;26.00;99.90;;;;;;5070422;28;20208;-79
2022/11/05 04:14:57;;;;;;;4.57;1.00;;;25.50;99.90;;;;;;5049984;28;20199;-80
2022/11/05 04:17:27;;;;;;;2.22;0.75;;;25.50;99.90;;;;;;5056809;28;20724;-78
2022/11/05 04:25:46;;;;;;;2.90;0.80;;;25.50;99.90;;;;;;5051294;28;20222;-79
2022/11/05 04:28:17;;;;;;;2.92;0.80;;;25.40;99.90;;;;;;5063145;28;20201;-79
2022/11/05 04:30:46;;;;;;;5.05;0.90;;;25.20;99.90;;;;;;5058245;28;20673;-79
2022/11/05 04:33:18;;;;;;;4.05;0.80;;;25.20;99.90;;;;;;5068905;28;20208;-79
2022/11/05 04:35:49;;;;;;;2.88;0.65;;;25.40;99.90;;;;;;5054561;28;20193;-78
2022/11/05 04:38:23;;;;;;;5.28;0.90;;;25.40;99.90;;;;;;5049787;28;20193;-80
2022/11/05 04:40:54;;;;;;;3.10;0.60;;;25.80;99.90;;;;;;5049625;28;20196;-80
2022/11/05 04:43:25;;;;;;;3.38;0.70;;;26.10;99.90;;;;;;5050803;28;20227;-80
2022/11/05 04:45:55;;;;;;;4.63;0.88;;;26.20;99.90;;;;;;5062693;28;20248;-80
2022/11/05 04:48:26;;;;;;;3.13;0.90;;;26.00;99.90;;;;;;5057549;28;20227;-78
2022/11/05 04:50:57;;;;;;;3.75;0.90;;;25.80;99.90;;;;;;5064153;28;20278;-78
2022/11/05 04:53:30;;;;;;;3.25;0.63;;;25.90;99.90;;;;;;5073458;28;20256;-77
2022/11/05 04:56:12;;;;;;;2.55;0.70;;;26.10;99.90;;;;;;5062406;28;20677;-78
2022/11/05 04:58:43;;;;;;;5.03;0.85;;;26.00;99.90;;;;;;5057021;28;20196;-78
2022/11/05 05:01:16;;;;;;;5.53;0.90;;;26.10;99.90;;;;;;5061893;28;20196;-78
2022/11/05 05:03:49;;;;;;;3.03;0.88;;;26.10;99.90;;;;;;5067001;28;20196;-79
2022/11/05 05:06:20;;;;;;;2.50;0.85;;;26.30;99.90;;;;;;5053932;28;20275;-79
2022/11/05 05:08:53;;;;;;;2.30;0.93;;;26.60;99.90;;;;;;5053032;28;20683;-79
2022/11/05 05:11:24;;;;;;;1.60;0.60;;;26.80;99.90;;;;;;5065180;28;20722;-79
2022/11/05 05:13:55;;;;;;;1.80;0.60;;;27.00;99.90;;;;;;5063218;28;20278;-79
2022/11/05 05:16:27;;;;;;;3.92;1.05;;;27.10;99.90;;;;;;5063853;28;20227;-79
2022/11/05 05:18:59;;;;;;;5.30;0.80;;;27.30;99.90;;;;;;5063704;28;20279;-79
2022/11/05 05:21:40;;;;;;;1.35;0.43;;;27.40;99.90;;;;;;5057274;28;20196;-79
2022/11/05 05:24:15;;;;;;;2.75;0.70;;;27.50;99.90;;;;;;5073295;28;20227;-79
2022/11/05 05:26:48;;;;;;;3.10;0.80;;;27.30;99.90;;;;;;5056476;28;20210;-80
2022/11/05 05:29:19;;;;;;;3.00;0.80;;;27.60;99.90;;;;;;5072684;28;20654;-77
2022/11/05 05:31:50;;;;;;;5.88;0.75;;;27.60;99.90;;;;;;5072375;28;20574;-77
2022/11/05 05:34:21;;;;;;;5.30;0.70;;;27.60;99.90;;;;;;5059322;28;20604;-77
2022/11/05 05:36:52;;;;;;;2.70;0.50;;;27.60;99.90;;;;;;5057690;28;20269;-77
2022/11/05 05:39:28;;;;;;;3.13;0.68;;;27.50;99.90;;;;;;5054253;28;20731;-77
2022/11/05 05:41:58;;;;;;;3.47;0.75;;;27.50;99.90;;;;;;5055864;28;20216;-78
2022/11/05 05:44:29;;;;;;;2.67;0.60;;;27.70;99.90;;;;;;5054057;28;20213;-78
2022/11/05 05:47:00;;;;;;;2.00;0.70;;;27.40;99.90;;;;;;5062287;28;20212;-78
2022/11/05 05:49:31;;;;;;;5.32;0.60;;;27.50;99.90;;;;;;5054220;28;20651;-76
2022/11/05 05:52:01;;;;;;;2.50;0.70;;;27.60;99.90;;;;;;5066908;28;20277;-78
2022/11/05 05:54:34;;;;;;;6.20;0.88;;;27.70;99.90;;;;;;5070184;28;20200;-78
2022/11/05 05:57:06;;;;;;;4.07;0.90;;;27.80;99.90;;;;;;5060257;28;20207;-77
2022/11/05 05:59:36;;;;;;;6.57;0.93;;;28.00;99.90;;;;;;5076705;28;20227;-78
2022/11/05 06:02:08;;;;;;;3.55;0.77;;;28.00;99.90;;;;;;5061459;28;20289;-77
2022/11/05 06:04:39;;;;;;;3.58;1.17;;;28.10;99.90;;;;;;5056987;28;20221;-78
2022/11/05 06:07:10;;;;;;;3.88;0.70;;;28.10;99.90;;;;;;5056153;28;20196;-78
2022/11/05 06:09:42;;;;;;;2.42;0.73;;;28.00;99.90;;;;;;5055603;28;20226;-78
2022/11/05 06:12:13;;;;;;;4.80;0.80;;;28.00;99.90;;;;;;5071475;28;20291;-78
2022/11/05 06:14:44;;;;;;;3.03;0.63;;;28.10;99.20;;;;;;5051987;28;20203;-78
2022/11/05 06:17:15;;;;;;;2.97;0.68;;;28.30;98.50;;;;;;5061454;28;20224;-79
2022/11/05 06:19:45;;;;;;;2.40;0.80;;;28.40;98.30;;;;;;5060240;28;20637;-79
2022/11/05 06:22:16;;;;;;;3.75;0.88;;;28.70;97.60;;;;;;5051919;28;20230;-78
2022/11/05 06:24:50;;;;;;;5.32;0.90;;;28.60;97.30;;;;;;5052119;28;20192;-78
2022/11/05 06:27:20;;;;;;;4.28;0.90;;;28.60;96.20;;;;;;5063924;28;20252;-79
2022/11/05 06:29:51;;;;;;;2.58;0.52;;;28.50;96.60;;;;;;5052005;28;20197;-78
2022/11/05 06:32:22;;;;;;;3.28;0.80;;;28.60;94.90;;;;;;5060376;28;20204;-78
2022/11/05 06:34:53;;;;;;;3.40;0.75;;;28.70;93.30;;;;;;5066895;28;20202;-79
2022/11/05 06:37:24;;;;;;;2.55;0.40;;;29.00;92.30;;;;;;5056468;28;20243;-78
2022/11/05 06:39:57;;;;;;;1.63;0.60;;;28.80;92.40;;;;;;5065685;28;20196;-79
2022/11/05 06:42:27;;;;;;;2.42;0.63;;;28.70;91.60;;;;;;5065729;28;20652;-78
2022/11/05 06:44:59;;;;;;;4.05;0.68;;;28.70;90.10;;;;;;5060847;28;20199;-78
2022/11/05 06:47:30;;;;;;;3.20;0.50;;;28.50;91.20;;;;;;5058078;28;20249;-78
2022/11/05 06:50:00;;;;;;;3.03;0.70;;;28.50;91.60;;;;;;5058244;28;20239;-78
2022/11/05 06:52:32;;;;;;;2.97;0.68;;;28.70;91.30;;;;;;5055110;28;20200;-76
2022/11/05 06:55:05;;;;;;;4.25;0.70;;;28.60;90.60;;;;;;5061758;28;20197;-76
2022/11/05 06:57:36;;;;;;;2.60;0.50;;;28.80;91.00;;;;;;5057245;28;20218;-76
2022/11/05 07:00:07;;;;;;;14.05;1.10;;;28.90;91.40;;;;;;5055571;28;20195;-77
2022/11/05 07:02:38;;;;;;;8.18;0.93;;;28.60;91.70;;;;;;5052486;28;20227;-77
2022/11/05 07:05:10;;;;;;;4.65;0.77;;;28.60;90.70;;;;;;5059319;28;20199;-77
2022/11/05 07:07:41;;;;;;;6.90;0.80;;;28.40;90.70;;;;;;5065279;28;20196;-77
2022/11/05 07:10:16;;;;;;;3.35;0.82;;;28.40;91.10;;;;;;5065987;28;20657;-77
2022/11/05 07:12:47;;;;;;;3.92;0.70;;;28.30;91.40;;;;;;5057088;28;20193;-77
2022/11/05 07:15:18;;;;;;;2.80;0.73;;;28.30;90.10;;;;;;5061264;28;20253;-77
2022/11/05 07:17:49;;;;;;;7.00;0.82;;;28.20;89.00;;;;;;5067023;28;20636;-76
2022/11/05 07:20:20;;;;;;;9.98;1.55;;;28.10;89.50;;;;;;5062340;28;21557;-77
2022/11/05 07:22:50;;;;;;;2.22;0.73;;;28.10;89.40;;;;;;5070633;28;20223;-77
2022/11/05 07:25:23;;;;;;;4.05;0.90;;;28.10;90.50;;;;;;5056570;28;20201;-77
2022/11/05 07:27:54;;;;;;;4.35;1.00;;;28.00;90.40;;;;;;5050574;28;20219;-77
2022/11/05 07:30:25;;;;;;;4.03;0.85;;;27.50;91.20;;;;;;5061791;28;20196;-78
2022/11/05 07:32:56;;;;;;;1.48;0.63;;;27.30;91.60;;;;;;5066640;28;20693;-77
2022/11/05 07:35:27;;;;;;;2.53;0.75;;;26.70;93.00;;;;;;5054690;28;20660;-76
2022/11/05 07:37:58;;;;;;;1.85;0.68;;;26.20;95.10;;;;;;5050727;28;20192;-78
2022/11/05 07:40:31;;;;;;;7.03;0.85;;;25.60;98.10;;;;;;5059453;28;20216;-78
2022/11/05 07:43:03;;;;;;;4.15;1.02;;;25.20;99.90;;;;;;5058325;28;20224;-78
2022/11/05 07:45:34;;;;;;;2.20;0.57;;;24.90;99.90;;;;;;5067947;28;20591;-78
2022/11/05 07:48:05;;;;;;;1.83;0.60;;;24.50;99.90;;;;;;5057787;28;20755;-78
2022/11/05 07:50:38;;;;;;;2.03;0.70;;;24.30;99.90;;;;;;5066109;28;20479;-78
2022/11/05 07:53:11;;;;;;;2.97;0.52;;;24.10;99.90;;;;;;5056755;28;20208;-78
2022/11/05 07:55:44;;;;;;;4.18;0.73;;;24.00;99.90;;;;;;5052586;28;20671;-78
2022/11/05 07:58:15;;;;;;;2.35;0.82;;;23.70;99.90;;;;;;5072393;28;20220;-77
2022/11/05 08:00:47;;;;;;;3.45;0.77;;;23.40;99.90;;;;;;5070830;28;20278;-78
2022/11/05 08:03:18;;;;;;;2.10;0.68;;;23.20;99.90;;;;;;5063270;28;20284;-78
2022/11/05 08:05:50;;;;;;;5.43;0.75;;;23.00;99.90;;;;;;5061349;28;20212;-78
2022/11/05 08:08:21;;;;;;;3.53;0.93;;;22.90;99.90;;;;;;5063485;28;20218;-78
2022/11/05 08:10:54;;;;;;;4.03;0.60;;;22.80;99.90;;;;;;5062463;28;20215;-78
2022/11/05 08:13:25;;;;;;;1.75;0.60;;;22.70;99.90;;;;;;5050027;28;20299;-77
2022/11/05 08:15:58;;;;;;;2.83;0.75;;;22.60;99.90;;;;;;5060581;28;20583;-77
2022/11/05 08:18:30;;;;;;;1.90;0.70;;;22.60;99.90;;;;;;5064156;28;20647;-77
2022/11/05 08:21:02;;;;;;;3.22;0.80;;;22.50;99.90;;;;;;5074486;28;20205;-77
2022/11/05 08:23:34;;;;;;;3.67;0.90;;;22.30;99.90;;;;;;5059057;28;20228;-76
2022/11/05 08:26:09;;;;;;;1.50;0.65;;;22.30;99.90;;;;;;5061027;28;20231;-76
2022/11/05 08:28:40;;;;;;;2.35;0.80;;;22.10;99.90;;;;;;5068424;28;20226;-77
2022/11/05 08:31:13;;;;;;;2.65;0.70;;;22.00;99.90;;;;;;5062544;28;20306;-77
2022/11/05 08:33:48;;;;;;;3.63;0.75;;;21.90;99.90;;;;;;5064709;28;20215;-77
2022/11/05 08:36:42;;;;;;;3.33;0.95;;;22.00;99.90;;;;;;5075596;28;20353;-78
2022/11/05 08:39:13;;;;;;;2.15;0.63;;;21.90;99.90;;;;;;5066352;28;20196;-76
2022/11/05 08:41:46;;;;;;;3.40;0.95;;;21.80;99.90;;;;;;5077757;28;20192;-78
2022/11/05 08:44:17;;;;;;;3.25;0.73;;;21.80;99.90;;;;;;5065439;28;20228;-77
2022/11/05 08:46:48;;;;;;;3.15;0.90;;;21.70;99.90;;;;;;5058552;28;20185;-76
2022/11/05 08:49:23;;;;;;;2.58;0.80;;;21.70;99.90;;;;;;5060500;28;20257;-76
2022/11/05 08:51:54;;;;;;;4.05;1.00;;;21.70;99.90;;;;;;5076724;28;20219;-77
2022/11/05 08:54:30;;;;;;;1.60;0.70;;;21.70;99.90;;;;;;5065129;28;20260;-77
2022/11/05 08:59:57;;;;;;;2.67;0.80;;;21.50;99.90;;;;;;5078495;28;20279;-74
2022/11/05 09:02:32;;;;;;;2.28;0.70;;;21.50;99.90;;;;;;5074453;28;20283;-76
2022/11/05 09:05:03;;;;;;;4.07;0.85;;;21.60;99.90;;;;;;5064530;28;20347;-76
2022/11/05 09:07:35;;;;;;;3.08;0.88;;;21.50;99.90;;;;;;5072015;28;20621;-76
2022/11/05 09:10:07;;;;;;;4.47;0.90;;;21.50;99.90;;;;;;5080408;28;20573;-77
2022/11/05 09:12:41;;;;;;;4.00;0.70;;;21.40;99.90;;;;;;5068044;28;20257;-78
2022/11/05 09:15:13;;;;;;;1.98;0.70;;;21.50;99.90;;;;;;5078045;28;20733;-77
2022/11/05 09:17:44;;;;;;;3.40;0.82;;;21.30;99.90;;;;;;5067602;28;20227;-78
2022/11/05 09:20:16;;;;;;;2.17;0.70;;;21.40;99.90;;;;;;5069137;28;20197;-77
2022/11/05 09:22:47;;;;;;;2.90;0.90;;;21.30;99.90;;;;;;5064610;28;20220;-77
2022/11/05 09:25:19;;;;;;;2.95;0.90;;;21.30;99.90;;;;;;5085453;28;20294;-78
2022/11/05 09:27:54;;;;;;;2.45;0.90;;;21.40;99.90;;;;;;5075658;28;20196;-78
2022/11/05 09:33:21;;;;;;;3.92;0.70;;;21.30;99.90;;;;;;5065743;28;20200;-79
2022/11/05 09:35:54;;;;;;;5.03;0.90;;;21.30;99.90;;;;;;5075809;28;20249;-77
2022/11/05 09:38:26;;;;;;;2.03;0.80;;;21.30;99.90;;;;;;5077230;28;20191;-77
2022/11/05 09:41:01;;;;;;;5.03;0.90;;;21.30;99.90;;;;;;5063626;28;20287;-76
2022/11/05 09:43:42;;;;;;;3.47;0.88;;;21.20;99.90;;;;;;5086601;28;20231;-76
2022/11/05 09:46:20;;;;;;;2.20;0.90;;;21.10;99.90;;;;;;5077418;28;20259;-77
2022/11/05 09:48:54;;;;;;;3.03;1.00;;;21.10;99.90;;;;;;5060210;28;20199;-77
2022/11/05 09:51:33;;;;;;;4.88;1.10;;;21.10;99.90;;;;;;5065326;28;20227;-78
2022/11/05 09:54:07;;;;;;;4.25;1.10;;;21.10;99.90;;;;;;5068596;28;20194;-77
2022/11/05 09:56:42;;;;;;;6.28;0.93;;;21.10;99.90;;;;;;5058507;28;20278;-76
2022/11/05 09:59:21;;;;;;;4.60;1.00;;;21.10;99.90;;;;;;5074937;28;20334;-76
2022/11/05 10:01:54;;;;;;;3.20;0.75;;;21.10;99.90;;;;;;5062210;28;20200;-76
2022/11/05 10:04:29;;;;;;;3.03;0.90;;;21.10;99.90;;;;;;5064372;28;20230;-77
2022/11/05 10:07:04;;;;;;;3.65;1.20;;;21.00;99.90;;;;;;5070929;28;20657;-77
2022/11/05 10:09:44;;;;;;;1.85;0.80;;;21.00;99.90;;;;;;5062457;28;20200;-77
2022/11/05 10:12:18;;;;;;;3.35;0.82;;;21.00;99.90;;;;;;5064355;28;20568;-79
2022/11/05 10:15:05;;;;;;;2.35;0.80;;;21.10;99.90;;;;;;5071634;28;20282;-77
2022/11/05 10:17:55;;;;;;;1.90;0.85;;;21.00;99.90;;;;;;5070201;28;20238;-78
2022/11/05 10:20:35;;;;;;;3.28;1.00;;;21.00;99.90;;;;;;5073644;28;20204;-78
2022/11/05 10:23:16;;;;;;;5.22;0.90;;;20.90;99.90;;;;;;5075974;28;20241;-77
2022/11/05 10:25:58;;;;;;;5.13;0.88;;;20.90;99.90;;;;;;5063474;28;20197;-79
2022/11/05 10:28:31;;;;;;;2.65;1.00;;;20.80;99.90;;;;;;5059942;28;20203;-78
2022/11/05 10:31:10;;;;;;;2.47;0.80;;;20.90;99.90;;;;;;5062863;28;20299;-78
2022/11/05 10:33:54;;;;;;;3.22;0.82;;;20.80;99.90;;;;;;5079668;28;20203;-76
2022/11/05 10:36:30;;;;;;;3.40;2.30;;;20.80;99.90;;;;;;5082846;28;20223;-77
2022/11/05 10:39:16;;;;;;;2.05;0.70;;;20.80;99.90;;;;;;5080373;28;20196;-77
2022/11/05 10:42:24;;;;;;;2.05;0.70;;;20.80;99.90;;;;;;5075207;28;20235;-78
2022/11/05 10:45:10;;;;;;;3.15;0.80;;;20.70;99.90;;;;;;5077247;28;20674;-76
2022/11/05 10:47:54;;;;;;;4.72;1.02;;;20.70;99.90;;;;;;5073663;28;20196;-77
2022/11/05 10:50:32;;;;;;;1.95;0.80;;;20.70;99.90;;;;;;5081542;28;20199;-77
2022/11/05 10:53:24;;;;;;;2.30;0.70;;;20.70;99.90;;;;;;5078080;28;20214;-80
2022/11/05 10:58:59;;;;;;;3.88;0.80;;;20.60;99.90;;;;;;5059967;28;20403;-79
2022/11/05 11:01:48;;;;;;;1.92;0.68;;;20.50;99.90;;;;;;5060803;28;20220;-77
2022/11/05 11:04:27;;;;;;;2.72;0.70;;;20.60;99.90;;;;;;5076452;28;20220;-76
2022/11/05 11:07:04;;;;;;;2.75;0.77;;;20.60;99.90;;;;;;5069828;28;20200;-78
2022/11/05 11:09:39;;;;;;;6.05;1.10;;;20.60;99.90;;;;;;5061114;28;20198;-78
2022/11/05 11:12:18;;;;;;;2.67;0.75;;;20.60;99.90;;;;;;5064454;28;20192;-77
2022/11/05 11:15:02;;;;;;;2.20;0.82;;;20.60;99.90;;;;;;5076339;28;20263;-78
2022/11/05 11:17:34;;;;;;;2.20;0.88;;;20.50;99.90;;;;;;5075568;28;20287;-77
2022/11/05 11:20:28;;;;;;;1.90;0.80;;;20.50;99.90;;;;;;5058264;28;20255;-78
2022/11/05 11:23:17;;;;;;;2.72;0.80;;;20.50;99.90;;;;;;5071928;28;20193;-79
2022/11/05 11:28:50;;;;;;;4.63;1.20;;;20.50;99.90;;;;;;5070499;28;20255;-79
2022/11/05 11:34:39;;;;;;;3.72;1.10;;;20.50;99.90;;;;;;5078862;28;20214;-78
2022/11/05 11:45:54;;;;;;;4.15;0.90;;;20.40;99.90;;;;;;5112482;22;20208;-78
2022/11/05 11:48:46;;;;;;;2.83;0.80;;;20.30;99.90;;;;;;5075205;28;20244;-77
2022/11/05 11:51:43;;;;;;;4.57;0.80;;;20.30;99.90;;;;;;5091252;28;20183;-79
2022/11/05 11:57:23;;;;;;;4.50;1.00;;;20.30;99.90;;;;;;5082240;28;20218;-77
2022/11/05 11:59:55;;;;;;;2.30;0.80;;;20.20;99.90;;;;;;5079283;28;20203;-77
2022/11/05 12:03:13;;;;;;;1.35;0.75;;;20.30;99.90;;;;;;5082591;28;20204;-77
2022/11/05 12:05:50;;;;;;;2.33;0.70;;;20.30;99.90;;;;;;5082340;28;20176;-77
2022/11/05 12:08:49;;;;;;;3.65;0.90;;;20.20;99.90;;;;;;5109031;28;20182;-78
2022/11/05 12:14:33;;;;;;;3.20;0.65;;;20.10;99.90;;;;;;5088196;22;20398;-78
2022/11/05 12:17:17;;;;;;;2.65;0.90;;;20.10;99.90;;;;;;5095700;28;20199;-78
2022/11/05 12:20:13;;;;;;;2.35;0.80;;;20.10;99.90;;;;;;5082571;28;20199;-78
2022/11/05 12:23:18;;;;;;;2.38;0.90;;;20.00;99.90;;;;;;5090255;28;20195;-78
2022/11/05 12:25:56;;;;;;;3.08;1.05;;;20.00;99.90;;;;;;5069919;28;20202;-79
2022/11/05 12:28:47;;;;;;;3.75;0.90;;;19.90;99.90;;;;;;5089069;28;20199;-78
2022/11/05 12:31:32;;;;;;;4.05;1.20;;;19.90;99.90;;;;;;5091174;28;20217;-77
2022/11/05 12:34:18;;;;;;;3.35;0.90;;;19.80;99.90;;;;;;5084408;28;20818;-78
2022/11/05 12:37:03;;;;;;;4.35;1.10;;;19.80;99.90;;;;;;5081501;28;20191;-78
2022/11/05 12:40:09;;;;;;;3.58;1.05;;;19.70;99.90;;;;;;5081510;28;20196;-78
2022/11/05 12:42:53;;;;;;;2.22;1.20;;;19.80;99.90;;;;;;5023552;28;20194;-79
2022/11/05 12:45:41;;;;;;;3.13;0.88;;;19.80;99.90;;;;;;5070083;28;20230;-76
2022/11/05 12:48:28;;;;;;;3.30;1.10;;;19.80;99.90;;;;;;5072277;28;20218;-79
2022/11/05 12:51:06;;;;;;;3.45;0.90;;;19.70;99.90;;;;;;5085159;28;20195;-78
2022/11/05 12:53:55;;;;;;;4.05;1.00;;;19.70;99.90;;;;;;5094673;28;20682;-77
2022/11/05 12:56:33;;;;;;;3.95;1.20;;;19.50;99.90;;;;;;5093784;28;20238;-79
2022/11/05 12:59:12;;;;;;;4.63;1.00;;;19.50;99.90;;;;;;5082445;28;20688;-78
2022/11/05 13:01:52;;;;;;;4.90;1.10;;;19.50;99.90;;;;;;5093078;28;20725;-78
2022/11/05 13:04:34;;;;;;;2.95;1.10;;;19.50;99.90;;;;;;5114382;28;20210;-78
2022/11/05 13:07:08;;;;;;;3.55;1.30;;;19.50;99.90;;;;;;5118180;28;20209;-79
2022/11/05 13:09:43;;;;;;;2.15;1.20;;;19.50;99.90;;;;;;5112476;28;20600;-78
2022/11/05 13:12:16;;;;;;;3.03;0.98;;;19.40;99.90;;;;;;5106032;28;20281;-78
2022/11/05 13:14:52;;;;;;;4.05;1.20;;;19.40;99.90;;;;;;5111635;27;20228;-78
2022/11/05 13:17:27;;;;;;;3.75;1.27;;;19.40;99.90;;;;;;5112047;28;20205;-78
2022/11/05 13:20:05;;;;;;;2.35;1.25;;;19.40;99.90;;;;;;5109139;28;20196;-78
2022/11/05 13:22:39;;;;;;;3.13;1.05;;;19.30;99.90;;;;;;5117024;28;20218;-78
2022/11/05 13:25:18;;;;;;;3.10;1.10;;;19.30;99.90;;;;;;5100711;28;20218;-78
2022/11/05 13:28:06;;;;;;;4.72;1.10;;;19.30;99.90;;;;;;5115557;28;20199;-78
2022/11/05 13:30:40;;;;;;;4.28;1.00;;;19.20;99.90;;;;;;5109010;28;20201;-77
2022/11/05 13:33:15;;;;;;;3.83;1.00;;;19.20;99.90;;;;;;5116572;27;20270;-77
2022/11/05 13:35:49;;;;;;;2.80;1.20;;;19.20;99.90;;;;;;5110681;28;20190;-77
2022/11/05 13:38:59;;;;;;;5.90;1.27;;;19.20;99.90;;;;;;5105513;28;20549;-77
2022/11/05 13:41:40;;;;;;;3.03;1.20;;;19.20;99.90;;;;;;5100688;28;20191;-77
2022/11/05 13:44:40;;;;;;;3.28;1.20;;;19.10;99.90;;;;;;5096631;28;20222;-77
2022/11/05 13:47:28;;;;;;;3.30;1.20;;;19.10;99.90;;;;;;5102912;28;20198;-78
2022/11/05 13:50:42;;;;;;;4.30;1.23;;;19.00;99.90;;;;;;5101665;28;20697;-77
2022/11/05 13:53:44;;;;;;;3.42;1.08;;;19.00;99.90;;;;;;5073514;28;20692;-77
2022/11/05 13:56:34;;;;;;;3.75;1.25;;;19.00;99.90;;;;;;5098499;28;20238;-77
2022/11/05 13:59:32;;;;;;;3.78;1.15;;;19.00;99.90;;;;;;5109001;28;20968;-78
2022/11/05 14:02:05;;;;;;;3.30;1.20;;;19.00;99.90;;;;;;5106708;28;20183;-78
2022/11/05 14:04:39;;;;;;;1.95;1.10;;;19.00;99.90;;;;;;5103325;28;20681;-77
2022/11/05 14:07:20;;;;;;;2.80;1.08;;;18.90;99.90;;;;;;5112051;28;20193;-77
2022/11/05 14:09:56;;;;;;;4.65;1.45;;;18.90;99.90;;;;;;5125600;28;20247;-77
2022/11/05 14:12:31;;;;;;;3.67;1.40;;;18.90;99.90;;;;;;5111750;28;20194;-77
2022/11/05 14:15:07;;;;;;;4.03;1.33;;;18.90;99.90;;;;;;5109917;28;20222;-78
2022/11/05 14:17:58;;;;;;;2.28;1.10;;;18.80;99.90;;;;;;5103999;28;20190;-79
2022/11/05 14:20:48;;;;;;;5.00;1.50;;;18.80;99.90;;;;;;5109431;28;20187;-79
2022/11/05 14:23:53;;;;;;;3.85;1.55;;;18.80;99.90;;;;;;5104650;27;20263;-79
2022/11/05 14:26:27;;;;;;;3.10;1.60;;;18.80;99.90;;;;;;5099713;28;20195;-78
2022/11/05 14:29:24;;;;;;;6.38;3.13;;;18.80;99.90;;;;;;5106062;28;20561;-78
2022/11/05 14:32:04;;;;;;;5.82;3.80;;;18.70;99.90;;;;;;5094292;28;20195;-78
2022/11/05 14:34:50;;;;;;;7.68;4.30;;;18.60;99.90;;;;;;5103620;28;20608;-78
2022/11/05 14:37:35;;;;;;;10.80;7.57;;;18.60;99.90;;;;;;5111566;28;20197;-78
2022/11/05 14:40:35;;;;;;;12.13;6.90;;;18.60;99.90;;;;;;5106377;28;20725;-79
2022/11/05 14:43:07;;;;;;;13.25;7.65;;;18.70;99.90;;;;;;5091365;28;20661;-79